createdAt,value
2018-12-17T00:00:25.685Z,12.58
2018-12-17T00:02:55.280Z,14.30
2018-12-17T00:05:24.937Z,14.60
2018-12-17T00:07:54.684Z,14.80
2018-12-17T00:10:24.329Z,13.55
2018-12-17T00:12:54.545Z,14.65
2018-12-17T00:15:24.339Z,13.72
2018-12-17T00:17:53.850Z,12.78
2018-12-17T00:20:23.305Z,14.28
2018-12-17T00:22:52.922Z,14.80
2018-12-17T00:25:22.470Z,14.78
2018-12-17T00:30:48.612Z,12.33
2018-12-17T00:33:18.122Z,14.43
2018-12-17T00:35:47.582Z,12.90
2018-12-17T00:38:17.027Z,14.63
2018-12-17T00:40:46.400Z,13.00
2018-12-17T00:43:15.781Z,13.20
2018-12-17T00:45:45.323Z,14.00
2018-12-17T00:48:14.732Z,13.08
2018-12-17T00:50:44.152Z,14.25
2018-12-17T00:53:13.624Z,13.35
2018-12-17T00:55:43.135Z,11.90
2018-12-17T00:58:15.337Z,13.32
2018-12-17T01:00:44.140Z,12.60
2018-12-17T01:03:13.614Z,13.40
2018-12-17T01:05:43.261Z,13.60
2018-12-17T01:08:11.721Z,13.03
2018-12-17T01:10:41.164Z,13.57
2018-12-17T01:13:10.631Z,12.40
2018-12-17T01:15:40.021Z,12.13
2018-12-17T01:18:09.564Z,14.63
2018-12-17T01:20:39.009Z,15.10
2018-12-17T01:23:08.469Z,13.35
2018-12-17T01:25:38.045Z,14.78
2018-12-17T01:28:07.534Z,14.43
2018-12-17T01:30:37.189Z,14.18
2018-12-17T01:33:06.624Z,15.95
2018-12-17T01:35:36.073Z,13.18
2018-12-17T01:38:05.939Z,13.18
2018-12-17T01:40:35.810Z,15.20
2018-12-17T01:43:05.358Z,15.85
2018-12-17T01:45:34.754Z,15.28
2018-12-17T01:48:04.290Z,13.95
2018-12-17T01:50:33.742Z,14.68
2018-12-17T01:53:03.154Z,14.35
2018-12-17T01:55:32.542Z,15.25
2018-12-17T01:58:02.022Z,15.40
2018-12-17T02:00:31.451Z,15.00
2018-12-17T02:03:00.888Z,14.38
2018-12-17T02:05:30.313Z,14.35
2018-12-17T02:07:59.814Z,16.50
2018-12-17T02:10:29.248Z,12.60
2018-12-17T02:12:58.667Z,14.58
2018-12-17T02:15:28.108Z,15.53
2018-12-17T02:17:57.614Z,15.55
2018-12-17T02:23:23.771Z,15.97
2018-12-17T02:25:53.247Z,13.45
2018-12-17T02:28:22.995Z,14.07
2018-12-17T02:30:52.579Z,16.00
2018-12-17T02:33:22.640Z,15.35
2018-12-17T02:35:52.182Z,15.25
2018-12-17T02:41:18.388Z,12.93
2018-12-17T02:43:48.412Z,15.50
2018-12-17T02:46:17.836Z,16.07
2018-12-17T02:48:57.449Z,15.75
2018-12-17T02:51:30.172Z,16.43
2018-12-17T02:54:05.594Z,16.15
2018-12-17T02:56:51.232Z,15.83
2018-12-17T03:00:01.006Z,17.35
2018-12-17T03:02:39.007Z,15.13
2018-12-17T03:05:12.216Z,16.52
2018-12-17T03:07:43.198Z,16.32
2018-12-17T03:10:40.938Z,14.00
2018-12-17T03:13:22.854Z,15.50
2018-12-17T03:15:54.431Z,13.93
2018-12-17T03:18:39.054Z,15.03
2018-12-17T03:21:11.808Z,14.93
2018-12-17T03:23:42.950Z,16.90
2018-12-17T03:29:19.497Z,15.70
2018-12-17T03:31:58.743Z,15.40
2018-12-17T03:34:45.723Z,13.38
2018-12-17T03:37:21.203Z,15.20
2018-12-17T03:40:03.564Z,15.10
2018-12-17T03:43:06.133Z,16.40
2018-12-17T03:45:43.484Z,16.32
2018-12-17T03:48:20.258Z,16.70
2018-12-17T03:50:53.424Z,15.40
2018-12-17T03:53:26.670Z,14.93
2018-12-17T03:56:10.382Z,14.70
2018-12-17T03:58:46.055Z,15.45
2018-12-17T04:01:29.919Z,14.58
2018-12-17T04:04:02.682Z,15.95
2018-12-17T04:06:33.779Z,14.40
2018-12-17T04:12:07.513Z,13.70
2018-12-17T04:14:54.158Z,13.70
2018-12-17T04:17:29.653Z,15.93
2018-12-17T04:20:22.596Z,14.87
2018-12-17T04:22:58.261Z,14.10
2018-12-17T04:25:29.307Z,16.07
2018-12-17T04:28:05.117Z,15.35
2018-12-17T04:30:40.965Z,14.85
2018-12-17T04:33:13.781Z,13.68
2018-12-17T04:36:02.376Z,14.47
2018-12-17T04:38:43.219Z,16.62
2018-12-17T04:44:28.796Z,13.20
2018-12-17T04:46:58.173Z,15.43
2018-12-17T04:49:42.393Z,15.78
2018-12-17T04:54:54.767Z,15.70
2018-12-17T04:57:24.301Z,14.20
2018-12-17T04:59:59.574Z,14.98
2018-12-17T05:02:57.135Z,16.32
2018-12-17T05:05:26.590Z,15.13
2018-12-17T05:07:56.100Z,14.75
2018-12-17T05:10:27.018Z,14.98
2018-12-17T05:12:56.564Z,15.43
2018-12-17T05:15:25.970Z,14.38
2018-12-17T05:17:55.470Z,14.78
2018-12-17T05:20:25.087Z,15.83
2018-12-17T05:22:54.611Z,16.52
2018-12-17T05:25:24.270Z,15.70
2018-12-17T05:27:53.660Z,17.05
2018-12-17T05:30:23.127Z,16.23
2018-12-17T05:32:52.676Z,17.10
2018-12-17T05:35:23.062Z,16.40
2018-12-17T05:37:52.557Z,16.32
2018-12-17T05:40:22.075Z,15.50
2018-12-17T05:42:51.651Z,17.85
2018-12-17T05:45:21.062Z,17.80
2018-12-17T05:47:50.512Z,18.07
2018-12-17T05:50:19.890Z,17.57
2018-12-17T05:52:49.301Z,13.88
2018-12-17T05:55:18.823Z,14.50
2018-12-17T05:57:48.289Z,15.28
2018-12-17T06:00:17.769Z,17.35
2018-12-17T06:02:47.249Z,18.00
2018-12-17T06:05:16.857Z,17.37
2018-12-17T06:07:46.278Z,18.05
2018-12-17T06:10:15.761Z,17.02
2018-12-17T06:12:45.158Z,18.53
2018-12-17T06:15:14.640Z,16.80
2018-12-17T06:17:44.065Z,16.97
2018-12-17T06:20:13.506Z,19.27
2018-12-17T06:22:42.969Z,17.27
2018-12-17T06:25:12.498Z,16.50
2018-12-17T06:27:41.980Z,16.23
2018-12-17T06:30:11.622Z,18.27
2018-12-17T06:32:41.078Z,19.95
2018-12-17T06:35:10.682Z,16.60
2018-12-17T06:37:40.125Z,16.48
2018-12-17T06:40:10.377Z,17.77
2018-12-17T06:42:40.270Z,17.52
2018-12-17T06:45:09.987Z,17.77
2018-12-17T06:47:39.508Z,18.23
2018-12-17T06:50:09.060Z,17.27
2018-12-17T06:52:38.534Z,17.52
2018-12-17T06:55:08.155Z,20.37
2018-12-17T06:57:38.731Z,16.12
2018-12-17T07:00:08.984Z,17.60
2018-12-17T07:02:38.420Z,16.50
2018-12-17T07:05:08.177Z,18.00
2018-12-17T07:07:37.671Z,19.62
2018-12-17T07:10:07.501Z,15.78
2018-12-17T07:12:37.172Z,17.95
2018-12-17T07:15:07.724Z,19.77
2018-12-17T07:17:37.203Z,17.95
2018-12-17T07:20:07.234Z,17.10
2018-12-17T07:22:36.657Z,19.30
2018-12-17T07:25:06.560Z,18.23
2018-12-17T07:27:36.119Z,16.42
2018-12-17T07:30:06.674Z,16.25
2018-12-17T07:32:36.888Z,16.07
2018-12-17T07:35:08.649Z,17.65
2018-12-17T07:37:39.117Z,18.30
2018-12-17T07:40:09.267Z,17.75
2018-12-17T07:42:38.884Z,18.77
2018-12-17T07:45:08.643Z,18.57
2018-12-17T07:47:38.196Z,18.45
2018-12-17T07:50:08.418Z,17.87
2018-12-17T07:52:44.212Z,16.85
2018-12-17T07:55:13.852Z,17.77
2018-12-17T07:57:43.251Z,17.70
2018-12-17T08:00:13.217Z,17.80
2018-12-17T08:02:42.703Z,17.70
2018-12-17T08:05:12.118Z,17.97
2018-12-17T08:07:41.538Z,17.75
2018-12-17T08:10:11.134Z,18.85
2018-12-17T08:12:40.630Z,17.62
2018-12-17T08:15:10.321Z,17.87
2018-12-17T08:17:58.510Z,16.65
2018-12-17T08:20:45.329Z,15.63
2018-12-17T08:23:21.072Z,18.85
2018-12-17T08:25:50.815Z,17.95
2018-12-17T08:28:37.392Z,18.00
2018-12-17T08:31:19.654Z,16.40
2018-12-17T08:33:49.158Z,17.02
2018-12-17T08:36:18.709Z,18.90
2018-12-17T08:38:48.193Z,17.98
2018-12-17T08:41:17.669Z,14.80
2018-12-17T08:43:47.193Z,15.25
2018-12-17T08:46:16.704Z,16.07
2018-12-17T08:48:46.142Z,16.15
2018-12-17T08:51:15.604Z,16.15
2018-12-17T08:53:45.087Z,15.63
2018-12-17T08:56:14.505Z,16.00
2018-12-17T08:58:44.098Z,14.87
2018-12-17T09:01:13.609Z,17.00
2018-12-17T09:03:43.111Z,16.57
2018-12-17T09:06:12.493Z,17.20
2018-12-17T09:08:41.998Z,17.30
2018-12-17T09:11:11.421Z,16.93
2018-12-17T09:13:40.849Z,16.90
2018-12-17T09:16:10.415Z,15.48
2018-12-17T09:18:39.966Z,15.35
2018-12-17T09:24:06.180Z,17.62
2018-12-17T09:26:35.573Z,17.17
2018-12-17T09:29:05.414Z,14.80
2018-12-17T09:31:35.704Z,17.77
2018-12-17T09:34:05.325Z,16.48
2018-12-17T09:36:34.844Z,16.93
2018-12-17T09:39:15.185Z,17.60
2018-12-17T09:41:44.615Z,16.70
2018-12-17T09:44:14.208Z,16.52
2018-12-17T09:46:44.364Z,16.10
2018-12-17T09:49:13.761Z,16.10
2018-12-17T09:51:43.206Z,17.57
2018-12-17T09:54:12.663Z,17.32
2018-12-17T09:56:42.252Z,13.90
2018-12-17T09:59:11.706Z,15.95
2018-12-17T10:01:41.244Z,16.32
2018-12-17T10:04:10.680Z,15.65
2018-12-17T10:06:40.248Z,15.80
2018-12-17T10:09:09.906Z,16.75
2018-12-17T10:11:39.485Z,16.35
2018-12-17T10:14:08.919Z,15.60
2018-12-17T10:16:38.468Z,16.10
2018-12-17T10:19:07.955Z,15.40
2018-12-17T10:21:37.513Z,15.88
2018-12-17T10:24:07.051Z,16.50
2018-12-17T10:26:36.621Z,17.60
2018-12-17T10:29:06.137Z,16.07
2018-12-17T10:31:35.599Z,18.02
2018-12-17T10:34:05.227Z,16.10
2018-12-17T10:36:34.660Z,17.87
2018-12-17T10:39:05.933Z,16.27
2018-12-17T10:41:35.515Z,15.90
2018-12-17T10:44:05.189Z,16.50
2018-12-17T10:46:34.697Z,18.02
2018-12-17T10:49:04.253Z,15.70
2018-12-17T10:51:33.778Z,15.68
2018-12-17T10:54:03.227Z,16.97
2018-12-17T10:56:32.811Z,16.00
2018-12-17T10:59:02.240Z,16.30
2018-12-17T11:01:36.971Z,16.77
2018-12-17T11:04:13.746Z,17.00
2018-12-17T11:06:43.241Z,17.05
2018-12-17T11:09:12.770Z,17.75
2018-12-17T11:11:42.295Z,17.10
2018-12-17T11:14:11.825Z,18.20
2018-12-17T11:16:41.286Z,17.37
2018-12-17T11:19:10.799Z,15.65
2018-12-17T11:21:40.457Z,16.20
2018-12-17T11:24:10.042Z,14.28
2018-12-17T11:26:39.550Z,17.20
2018-12-17T11:29:09.088Z,16.97
2018-12-17T11:31:38.492Z,18.23
2018-12-17T11:34:07.915Z,18.05
2018-12-17T11:36:37.483Z,18.30
2018-12-17T11:39:10.278Z,16.55
2018-12-17T11:41:40.131Z,17.60
2018-12-17T11:44:09.500Z,16.55
2018-12-17T11:46:39.034Z,14.85
2018-12-17T11:49:08.485Z,16.65
2018-12-17T11:54:33.398Z,17.42
2018-12-17T11:57:51.227Z,15.98
2018-12-17T12:00:22.874Z,16.75
2018-12-17T12:02:58.935Z,18.23
2018-12-17T12:05:23.820Z,15.38
2018-12-17T12:07:53.474Z,19.77
2018-12-17T12:10:23.000Z,18.35
2018-12-17T12:12:52.455Z,16.52
2018-12-17T12:15:21.979Z,17.02
2018-12-17T12:17:51.524Z,17.20
2018-12-17T12:20:21.013Z,17.15
2018-12-17T12:22:50.416Z,16.80
2018-12-17T12:28:17.214Z,17.37
2018-12-17T12:30:46.688Z,16.85
2018-12-17T12:33:16.272Z,14.65
2018-12-17T12:48:44.038Z,14.98
2018-12-17T12:54:34.556Z,15.63
2018-12-17T12:57:09.461Z,14.13
2018-12-17T12:59:39.158Z,14.60
2018-12-17T13:02:09.728Z,14.83
2018-12-17T13:04:39.284Z,14.80
2018-12-17T13:07:08.890Z,13.10
2018-12-17T13:09:38.307Z,13.53
2018-12-17T13:12:11.097Z,13.85
2018-12-17T13:14:40.600Z,16.73
2018-12-17T13:20:41.458Z,12.60
2018-12-17T13:23:29.934Z,14.90
2018-12-17T13:25:59.552Z,15.25
2018-12-17T13:28:29.057Z,15.88
2018-12-17T13:30:58.632Z,13.48
2018-12-17T13:33:28.070Z,14.35
2018-12-17T13:35:58.438Z,14.00
2018-12-17T13:38:27.888Z,15.03
2018-12-17T13:40:57.503Z,14.05
2018-12-17T13:43:26.942Z,15.18
2018-12-17T13:45:56.374Z,14.40
2018-12-17T13:48:26.109Z,13.85
2018-12-17T13:54:04.967Z,14.65
2018-12-17T13:56:34.524Z,14.07
2018-12-17T13:59:04.037Z,16.15
2018-12-17T14:01:33.572Z,14.25
2018-12-17T14:04:03.024Z,14.28
2018-12-17T14:06:32.514Z,12.87
2018-12-17T14:09:02.030Z,15.28
2018-12-17T14:11:31.521Z,13.10
2018-12-17T14:17:09.848Z,14.83
2018-12-17T14:19:42.201Z,16.37
2018-12-17T14:22:11.696Z,14.07
2018-12-17T14:24:41.154Z,12.58
2018-12-17T14:27:11.847Z,15.00
2018-12-17T14:29:41.481Z,15.35
2018-12-17T14:32:11.127Z,15.35
2018-12-17T14:34:40.570Z,14.25
2018-12-17T14:37:10.092Z,13.75
2018-12-17T14:39:39.602Z,15.38
2018-12-17T14:42:09.286Z,17.25
2018-12-17T14:44:39.521Z,16.40
2018-12-17T14:47:21.948Z,14.93
2018-12-17T15:08:54.716Z,16.87
2018-12-17T15:11:36.369Z,15.10
2018-12-17T15:14:22.023Z,17.12
2018-12-17T15:16:55.341Z,15.17
2018-12-17T15:19:49.868Z,19.10
2018-12-17T15:22:25.223Z,19.00
2018-12-17T15:24:57.286Z,17.80
2018-12-17T15:27:49.040Z,19.30
2018-12-17T15:36:53.415Z,16.93
2018-12-17T15:42:40.607Z,17.07
2018-12-17T15:45:06.353Z,20.12
2018-12-17T15:47:35.898Z,17.45
2018-12-17T15:50:05.814Z,19.23
2018-12-17T15:52:35.406Z,17.55
2018-12-17T15:55:05.328Z,18.90
2018-12-17T15:57:34.825Z,19.70
2018-12-17T16:00:05.128Z,19.48
2018-12-17T16:02:34.675Z,19.25
2018-12-17T16:05:05.518Z,18.02
2018-12-17T16:07:35.372Z,18.32
2018-12-17T16:10:05.782Z,18.30
2018-12-17T16:15:38.318Z,18.10
2018-12-17T16:18:07.981Z,18.55
2018-12-17T16:20:37.452Z,19.73
2018-12-17T16:23:07.029Z,17.35
2018-12-17T16:25:36.513Z,18.80
2018-12-17T16:28:06.326Z,18.92
2018-12-17T16:30:35.830Z,17.30
2018-12-17T16:33:05.397Z,19.00
2018-12-17T16:35:35.011Z,16.30
2018-12-17T16:38:10.525Z,16.60
2018-12-17T16:40:40.311Z,19.60
2018-12-17T16:43:09.873Z,18.10
2018-12-17T16:45:39.568Z,17.02
2018-12-17T16:48:09.005Z,18.62
2018-12-17T16:50:38.888Z,19.32
2018-12-17T16:53:08.377Z,18.85
2018-12-17T16:55:44.814Z,17.20
2018-12-17T16:58:14.576Z,19.20
2018-12-17T17:01:02.049Z,16.07
2018-12-17T17:03:35.204Z,17.00
2018-12-17T17:06:16.966Z,15.48
2018-12-17T17:08:46.472Z,17.25
2018-12-17T17:11:20.010Z,16.43
2018-12-17T17:13:55.280Z,14.65
2018-12-17T17:16:24.837Z,17.07
2018-12-17T17:22:51.431Z,16.17
2018-12-17T17:25:27.345Z,14.60
2018-12-17T17:27:56.986Z,18.12
2018-12-17T17:30:32.793Z,16.57
2018-12-17T17:33:02.398Z,15.50
2018-12-17T17:35:31.991Z,13.95
2018-12-17T17:38:01.481Z,15.63
2018-12-17T17:40:49.278Z,14.98
2018-12-17T17:43:47.914Z,16.35
2018-12-17T17:46:31.007Z,14.43
2018-12-17T17:49:00.591Z,15.30
2018-12-17T17:51:30.183Z,13.22
2018-12-17T17:53:59.831Z,12.37
2018-12-17T17:56:29.334Z,14.05
2018-12-17T17:58:59.627Z,15.75
2018-12-17T18:01:29.155Z,13.05
2018-12-17T18:07:01.963Z,14.05
2018-12-17T18:09:31.457Z,13.48
2018-12-17T18:12:02.183Z,14.20
2018-12-17T18:14:31.750Z,13.25
2018-12-17T18:17:01.369Z,13.48
2018-12-17T18:19:30.922Z,14.07
2018-12-17T18:22:00.410Z,13.15
2018-12-17T18:27:34.088Z,12.25
2018-12-17T18:30:03.853Z,13.32
2018-12-17T18:32:33.510Z,13.40
2018-12-17T18:35:02.996Z,12.93
2018-12-17T18:37:49.288Z,13.08
2018-12-17T18:40:18.872Z,13.22
2018-12-17T18:42:48.385Z,11.93
2018-12-17T18:45:17.922Z,12.05
2018-12-17T18:47:47.517Z,12.65
2018-12-17T18:50:17.285Z,13.68
2018-12-17T18:52:52.630Z,14.10
2018-12-17T18:55:23.096Z,14.10
2018-12-17T18:57:52.650Z,13.13
2018-12-17T19:07:39.871Z,14.78
2018-12-17T19:26:20.529Z,12.20
2018-12-17T19:28:49.936Z,13.40
2018-12-17T19:31:19.748Z,12.47
2018-12-17T21:52:23.151Z,12.63
2018-12-17T21:54:52.754Z,12.05
2018-12-17T21:57:32.393Z,15.67
2018-12-17T22:00:26.208Z,12.43
2018-12-17T22:03:18.891Z,11.93
2018-12-17T22:05:48.390Z,12.67
2018-12-17T22:08:17.871Z,13.38
2018-12-17T22:14:19.271Z,12.37
2018-12-17T22:16:48.648Z,12.00
2018-12-17T22:19:18.131Z,14.07
2018-12-17T22:25:33.771Z,14.38
2018-12-17T22:28:09.527Z,12.88
2018-12-17T22:30:58.054Z,12.30
2018-12-17T22:33:45.887Z,13.72
2018-12-17T22:36:16.274Z,13.60
2018-12-17T22:38:45.773Z,14.00
2018-12-17T22:41:15.209Z,12.33
2018-12-17T22:43:44.598Z,14.15
2018-12-17T22:46:14.037Z,13.28
2018-12-17T22:48:43.413Z,13.30
2018-12-17T22:51:12.821Z,13.65
2018-12-17T22:53:42.294Z,11.25
2018-12-17T22:56:11.697Z,14.03
2018-12-17T22:58:42.688Z,14.25
2018-12-17T23:01:12.553Z,14.65
2018-12-17T23:03:41.938Z,13.30
2018-12-17T23:06:11.389Z,11.60
2018-12-17T23:08:52.833Z,12.50
2018-12-17T23:11:43.297Z,13.58
2018-12-17T23:14:29.751Z,12.10
2018-12-17T23:17:16.136Z,13.80
2018-12-17T23:19:47.058Z,13.60
2018-12-17T23:22:16.946Z,14.30
2018-12-17T23:24:46.398Z,12.85
2018-12-17T23:27:16.933Z,12.88
2018-12-17T23:29:46.379Z,13.43
2018-12-17T23:32:15.745Z,12.85
2018-12-17T23:34:45.136Z,13.83
2018-12-17T23:37:14.688Z,14.68
2018-12-17T23:39:44.118Z,13.40
2018-12-17T23:42:13.765Z,13.03
2018-12-17T23:44:43.199Z,13.95
2018-12-17T23:47:12.832Z,13.60
2018-12-17T23:49:42.489Z,14.55
2018-12-17T23:52:11.916Z,13.58
2018-12-17T23:54:41.487Z,12.98
2018-12-17T23:57:10.913Z,12.63
2018-12-17T23:59:40.344Z,12.50
